sensor_id;sensor_type;location;lat;lon;timestamp;temperature;humidity
33105;DHT22;19476;51.448;6.674;2022-12-18T00:01:37;4.60;44.10
33105;DHT22;19476;51.448;6.674;2022-12-18T00:04:05;4.60;44.20
33105;DHT22;19476;51.448;6.674;2022-12-18T00:17:03;4.50;44.40
33105;DHT22;19476;51.448;6.674;2022-12-18T00:26:38;4.40;44.60
33105;DHT22;19476;51.448;6.674;2022-12-18T00:29:11;4.30;44.70
33105;DHT22;19476;51.448;6.674;2022-12-18T00:31:39;4.30;44.70
33105;DHT22;19476;51.448;6.674;2022-12-18T00:34:30;4.30;44.70
33105;DHT22;19476;51.448;6.674;2022-12-18T00:43:42;4.20;45.00
33105;DHT22;19476;51.448;6.674;2022-12-18T00:46:45;4.20;44.80
33105;DHT22;19476;51.448;6.674;2022-12-18T00:49:26;4.20;44.90
33105;DHT22;19476;51.448;6.674;2022-12-18T00:58:36;4.20;44.90
33105;DHT22;19476;51.448;6.674;2022-12-18T01:01:04;4.10;44.80
33105;DHT22;19476;51.448;6.674;2022-12-18T01:03:30;4.00;44.90
33105;DHT22;19476;51.448;6.674;2022-12-18T01:05:56;4.10;44.90
33105;DHT22;19476;51.448;6.674;2022-12-18T01:08:22;4.00;44.90
33105;DHT22;19476;51.448;6.674;2022-12-18T01:10:48;4.00;45.00
33105;DHT22;19476;51.448;6.674;2022-12-18T01:13:14;4.00;45.00
33105;DHT22;19476;51.448;6.674;2022-12-18T01:15:39;4.00;45.10
33105;DHT22;19476;51.448;6.674;2022-12-18T01:18:06;4.00;45.70
33105;DHT22;19476;51.448;6.674;2022-12-18T01:20:32;4.00;45.20
33105;DHT22;19476;51.448;6.674;2022-12-18T01:22:58;4.00;45.20
33105;DHT22;19476;51.448;6.674;2022-12-18T01:25:23;4.00;45.10
33105;DHT22;19476;51.448;6.674;2022-12-18T01:27:49;4.00;45.10
33105;DHT22;19476;51.448;6.674;2022-12-18T01:30:15;4.00;45.10
33105;DHT22;19476;51.448;6.674;2022-12-18T01:32:41;4.00;45.10
33105;DHT22;19476;51.448;6.674;2022-12-18T01:35:07;4.00;45.00
33105;DHT22;19476;51.448;6.674;2022-12-18T01:37:33;4.00;45.00
33105;DHT22;19476;51.448;6.674;2022-12-18T01:39:59;4.00;45.00
33105;DHT22;19476;51.448;6.674;2022-12-18T01:42:24;4.00;45.00
33105;DHT22;19476;51.448;6.674;2022-12-18T01:44:55;4.00;45.00
33105;DHT22;19476;51.448;6.674;2022-12-18T01:47:32;4.00;45.00
33105;DHT22;19476;51.448;6.674;2022-12-18T01:50:06;4.00;45.00
33105;DHT22;19476;51.448;6.674;2022-12-18T01:52:33;3.90;45.00
33105;DHT22;19476;51.448;6.674;2022-12-18T01:55:00;4.00;45.00
33105;DHT22;19476;51.448;6.674;2022-12-18T01:57:28;4.00;45.00
33105;DHT22;19476;51.448;6.674;2022-12-18T01:59:57;4.00;45.00
33105;DHT22;19476;51.448;6.674;2022-12-18T02:02:26;3.90;45.00
33105;DHT22;19476;51.448;6.674;2022-12-18T02:04:53;3.90;45.00
33105;DHT22;19476;51.448;6.674;2022-12-18T02:07:32;3.90;45.00
33105;DHT22;19476;51.448;6.674;2022-12-18T02:10:19;4.00;45.00
33105;DHT22;19476;51.448;6.674;2022-12-18T02:13:25;3.90;45.00
33105;DHT22;19476;51.448;6.674;2022-12-18T02:16:14;4.00;45.00
33105;DHT22;19476;51.448;6.674;2022-12-18T02:18:49;3.90;44.90
33105;DHT22;19476;51.448;6.674;2022-12-18T02:26:38;4.00;44.90
33105;DHT22;19476;51.448;6.674;2022-12-18T02:29:10;3.90;44.90
33105;DHT22;19476;51.448;6.674;2022-12-18T02:31:45;3.90;44.90
33105;DHT22;19476;51.448;6.674;2022-12-18T02:34:12;3.90;45.00
33105;DHT22;19476;51.448;6.674;2022-12-18T02:36:41;3.90;44.90
33105;DHT22;19476;51.448;6.674;2022-12-18T02:39:10;3.90;45.50
33105;DHT22;19476;51.448;6.674;2022-12-18T02:41:36;3.90;45.00
33105;DHT22;19476;51.448;6.674;2022-12-18T02:44:07;3.90;45.00
33105;DHT22;19476;51.448;6.674;2022-12-18T02:46:39;3.90;45.10
33105;DHT22;19476;51.448;6.674;2022-12-18T02:52:20;3.90;45.20
33105;DHT22;19476;51.448;6.674;2022-12-18T02:59:55;3.90;45.20
33105;DHT22;19476;51.448;6.674;2022-12-18T03:05:18;3.90;45.30
33105;DHT22;19476;51.448;6.674;2022-12-18T03:07:59;3.90;45.20
33105;DHT22;19476;51.448;6.674;2022-12-18T03:10:29;4.00;45.20
33105;DHT22;19476;51.448;6.674;2022-12-18T03:13:04;3.90;45.20
33105;DHT22;19476;51.448;6.674;2022-12-18T03:15:45;3.90;45.20
33105;DHT22;19476;51.448;6.674;2022-12-18T03:18:23;4.00;45.10
33105;DHT22;19476;51.448;6.674;2022-12-18T03:20:51;4.00;45.20
33105;DHT22;19476;51.448;6.674;2022-12-18T03:23:24;4.00;45.10
33105;DHT22;19476;51.448;6.674;2022-12-18T03:25:56;4.00;45.10
33105;DHT22;19476;51.448;6.674;2022-12-18T03:28:23;4.00;45.20
33105;DHT22;19476;51.448;6.674;2022-12-18T03:30:56;4.00;45.00
33105;DHT22;19476;51.448;6.674;2022-12-18T03:33:47;4.00;45.20
33105;DHT22;19476;51.448;6.674;2022-12-18T03:36:16;4.00;45.20
33105;DHT22;19476;51.448;6.674;2022-12-18T03:38:42;4.00;45.20
33105;DHT22;19476;51.448;6.674;2022-12-18T03:43:56;3.90;45.10
33105;DHT22;19476;51.448;6.674;2022-12-18T03:46:28;4.00;45.30
33105;DHT22;19476;51.448;6.674;2022-12-18T03:49:11;3.90;45.30
33105;DHT22;19476;51.448;6.674;2022-12-18T03:51:57;3.90;45.40
33105;DHT22;19476;51.448;6.674;2022-12-18T03:54:25;3.90;45.40
33105;DHT22;19476;51.448;6.674;2022-12-18T03:57:01;3.90;45.40
33105;DHT22;19476;51.448;6.674;2022-12-18T03:59:29;3.90;45.40
33105;DHT22;19476;51.448;6.674;2022-12-18T04:01:57;4.00;45.50
33105;DHT22;19476;51.448;6.674;2022-12-18T04:04:25;3.90;45.40
33105;DHT22;19476;51.448;6.674;2022-12-18T04:06:52;3.90;45.50
33105;DHT22;19476;51.448;6.674;2022-12-18T04:09:18;4.00;45.50
33105;DHT22;19476;51.448;6.674;2022-12-18T04:11:46;3.90;45.50
33105;DHT22;19476;51.448;6.674;2022-12-18T04:14:12;3.90;45.60
33105;DHT22;19476;51.448;6.674;2022-12-18T04:16:38;4.00;45.60
33105;DHT22;19476;51.448;6.674;2022-12-18T04:19:04;3.90;45.60
33105;DHT22;19476;51.448;6.674;2022-12-18T04:21:30;4.00;45.60
33105;DHT22;19476;51.448;6.674;2022-12-18T04:23:55;4.00;45.60
33105;DHT22;19476;51.448;6.674;2022-12-18T04:26:22;4.00;45.60
33105;DHT22;19476;51.448;6.674;2022-12-18T04:28:48;4.00;45.60
33105;DHT22;19476;51.448;6.674;2022-12-18T04:31:13;4.00;45.60
33105;DHT22;19476;51.448;6.674;2022-12-18T04:33:39;4.00;45.50
33105;DHT22;19476;51.448;6.674;2022-12-18T04:36:05;4.00;45.50
33105;DHT22;19476;51.448;6.674;2022-12-18T04:38:31;4.00;45.50
33105;DHT22;19476;51.448;6.674;2022-12-18T04:40:57;4.00;46.00
33105;DHT22;19476;51.448;6.674;2022-12-18T04:43:22;4.10;45.50
33105;DHT22;19476;51.448;6.674;2022-12-18T04:45:48;4.10;45.50
33105;DHT22;19476;51.448;6.674;2022-12-18T04:48:14;4.10;45.50
33105;DHT22;19476;51.448;6.674;2022-12-18T04:50:40;4.10;45.50
33105;DHT22;19476;51.448;6.674;2022-12-18T04:53:05;4.10;45.50
33105;DHT22;19476;51.448;6.674;2022-12-18T04:55:31;4.10;45.40
33105;DHT22;19476;51.448;6.674;2022-12-18T04:57:57;4.10;45.40
33105;DHT22;19476;51.448;6.674;2022-12-18T05:00:22;4.10;45.30
33105;DHT22;19476;51.448;6.674;2022-12-18T05:02:48;4.10;45.30
33105;DHT22;19476;51.448;6.674;2022-12-18T05:05:14;4.10;45.30
33105;DHT22;19476;51.448;6.674;2022-12-18T05:07:40;4.20;45.30
33105;DHT22;19476;51.448;6.674;2022-12-18T05:10:07;4.20;45.30
33105;DHT22;19476;51.448;6.674;2022-12-18T05:12:32;4.20;45.30
33105;DHT22;19476;51.448;6.674;2022-12-18T05:14:58;4.20;45.70
33105;DHT22;19476;51.448;6.674;2022-12-18T05:17:24;4.20;45.20
33105;DHT22;19476;51.448;6.674;2022-12-18T05:19:50;4.20;45.10
33105;DHT22;19476;51.448;6.674;2022-12-18T05:22:15;4.20;45.10
33105;DHT22;19476;51.448;6.674;2022-12-18T05:24:41;4.20;45.10
33105;DHT22;19476;51.448;6.674;2022-12-18T05:27:07;4.30;45.20
33105;DHT22;19476;51.448;6.674;2022-12-18T05:29:33;4.30;45.10
33105;DHT22;19476;51.448;6.674;2022-12-18T05:31:58;4.30;45.10
33105;DHT22;19476;51.448;6.674;2022-12-18T05:34:24;4.30;45.60
33105;DHT22;19476;51.448;6.674;2022-12-18T05:36:50;4.30;45.00
33105;DHT22;19476;51.448;6.674;2022-12-18T05:39:16;4.30;45.00
33105;DHT22;19476;51.448;6.674;2022-12-18T05:41:41;4.30;45.00
33105;DHT22;19476;51.448;6.674;2022-12-18T05:44:07;4.30;44.90
33105;DHT22;19476;51.448;6.674;2022-12-18T05:46:33;4.30;44.90
33105;DHT22;19476;51.448;6.674;2022-12-18T05:49:01;4.40;45.00
33105;DHT22;19476;51.448;6.674;2022-12-18T05:51:27;4.40;45.00
33105;DHT22;19476;51.448;6.674;2022-12-18T05:53:53;4.40;45.00
33105;DHT22;19476;51.448;6.674;2022-12-18T05:56:21;4.40;44.90
33105;DHT22;19476;51.448;6.674;2022-12-18T05:58:47;4.40;44.90
33105;DHT22;19476;51.448;6.674;2022-12-18T06:01:15;4.50;44.90
33105;DHT22;19476;51.448;6.674;2022-12-18T06:03:42;4.50;44.90
33105;DHT22;19476;51.448;6.674;2022-12-18T06:06:17;4.50;44.80
33105;DHT22;19476;51.448;6.674;2022-12-18T06:08:44;4.50;44.70
33105;DHT22;19476;51.448;6.674;2022-12-18T06:11:10;4.60;44.80
33105;DHT22;19476;51.448;6.674;2022-12-18T06:13:37;4.60;45.00
33105;DHT22;19476;51.448;6.674;2022-12-18T06:16:06;4.60;45.00
33105;DHT22;19476;51.448;6.674;2022-12-18T06:18:32;4.70;44.90
33105;DHT22;19476;51.448;6.674;2022-12-18T06:20:59;4.80;45.00
33105;DHT22;19476;51.448;6.674;2022-12-18T06:23:26;4.90;44.90
33105;DHT22;19476;51.448;6.674;2022-12-18T06:25:52;4.90;44.70
33105;DHT22;19476;51.448;6.674;2022-12-18T06:28:18;5.00;44.60
33105;DHT22;19476;51.448;6.674;2022-12-18T06:30:44;5.00;44.40
33105;DHT22;19476;51.448;6.674;2022-12-18T06:33:10;5.00;44.30
33105;DHT22;19476;51.448;6.674;2022-12-18T06:35:36;5.10;44.10
33105;DHT22;19476;51.448;6.674;2022-12-18T06:38:02;5.10;43.90
33105;DHT22;19476;51.448;6.674;2022-12-18T06:40:28;5.10;43.80
33105;DHT22;19476;51.448;6.674;2022-12-18T06:42:54;5.10;43.80
33105;DHT22;19476;51.448;6.674;2022-12-18T06:45:20;5.00;43.70
33105;DHT22;19476;51.448;6.674;2022-12-18T06:47:46;5.00;43.70
33105;DHT22;19476;51.448;6.674;2022-12-18T06:50:12;5.00;43.60
33105;DHT22;19476;51.448;6.674;2022-12-18T06:52:39;5.00;43.70
33105;DHT22;19476;51.448;6.674;2022-12-18T06:55:06;4.90;43.50
33105;DHT22;19476;51.448;6.674;2022-12-18T06:57:35;4.90;43.50
33105;DHT22;19476;51.448;6.674;2022-12-18T07:00:01;4.90;43.40
33105;DHT22;19476;51.448;6.674;2022-12-18T07:02:28;4.80;43.40
33105;DHT22;19476;51.448;6.674;2022-12-18T07:04:54;4.70;43.40
33105;DHT22;19476;51.448;6.674;2022-12-18T07:07:19;4.70;43.50
33105;DHT22;19476;51.448;6.674;2022-12-18T07:09:45;4.60;43.60
33105;DHT22;19476;51.448;6.674;2022-12-18T07:12:11;4.50;43.60
33105;DHT22;19476;51.448;6.674;2022-12-18T07:14:37;4.50;43.70
33105;DHT22;19476;51.448;6.674;2022-12-18T07:17:03;4.50;43.80
33105;DHT22;19476;51.448;6.674;2022-12-18T07:19:29;4.40;43.80
33105;DHT22;19476;51.448;6.674;2022-12-18T07:21:55;4.40;43.90
33105;DHT22;19476;51.448;6.674;2022-12-18T07:24:20;4.40;44.00
33105;DHT22;19476;51.448;6.674;2022-12-18T07:26:46;4.30;44.00
33105;DHT22;19476;51.448;6.674;2022-12-18T07:29:12;4.30;44.00
33105;DHT22;19476;51.448;6.674;2022-12-18T07:31:38;4.30;44.10
33105;DHT22;19476;51.448;6.674;2022-12-18T07:34:04;4.30;44.10
33105;DHT22;19476;51.448;6.674;2022-12-18T07:36:30;4.20;44.10
33105;DHT22;19476;51.448;6.674;2022-12-18T07:38:56;4.20;44.20
33105;DHT22;19476;51.448;6.674;2022-12-18T07:41:22;4.20;44.20
33105;DHT22;19476;51.448;6.674;2022-12-18T07:43:48;4.20;44.30
33105;DHT22;19476;51.448;6.674;2022-12-18T07:46:15;4.10;44.30
33105;DHT22;19476;51.448;6.674;2022-12-18T07:48:44;4.10;44.40
33105;DHT22;19476;51.448;6.674;2022-12-18T07:51:10;4.10;44.40
33105;DHT22;19476;51.448;6.674;2022-12-18T07:53:39;4.10;44.40
33105;DHT22;19476;51.448;6.674;2022-12-18T07:56:07;4.10;44.40
33105;DHT22;19476;51.448;6.674;2022-12-18T07:58:35;4.10;44.50
33105;DHT22;19476;51.448;6.674;2022-12-18T08:04:23;4.10;44.60
33105;DHT22;19476;51.448;6.674;2022-12-18T08:06:49;4.00;44.50
33105;DHT22;19476;51.448;6.674;2022-12-18T08:09:15;4.00;44.50
33105;DHT22;19476;51.448;6.674;2022-12-18T08:11:40;4.00;44.50
33105;DHT22;19476;51.448;6.674;2022-12-18T08:14:06;4.00;44.60
33105;DHT22;19476;51.448;6.674;2022-12-18T08:16:32;4.00;44.70
33105;DHT22;19476;51.448;6.674;2022-12-18T08:18:59;4.00;44.80
33105;DHT22;19476;51.448;6.674;2022-12-18T08:21:30;4.00;44.80
33105;DHT22;19476;51.448;6.674;2022-12-18T08:24:00;4.00;44.90
33105;DHT22;19476;51.448;6.674;2022-12-18T08:26:29;4.00;45.00
33105;DHT22;19476;51.448;6.674;2022-12-18T08:28:56;4.00;45.00
33105;DHT22;19476;51.448;6.674;2022-12-18T08:31:23;4.00;45.10
33105;DHT22;19476;51.448;6.674;2022-12-18T08:33:50;4.00;45.20
33105;DHT22;19476;51.448;6.674;2022-12-18T08:36:17;4.00;45.30
33105;DHT22;19476;51.448;6.674;2022-12-18T08:38:43;3.90;45.20
33105;DHT22;19476;51.448;6.674;2022-12-18T08:41:11;4.00;45.20
33105;DHT22;19476;51.448;6.674;2022-12-18T08:43:37;4.10;45.40
33105;DHT22;19476;51.448;6.674;2022-12-18T08:46:23;4.10;45.40
33105;DHT22;19476;51.448;6.674;2022-12-18T08:48:53;4.10;45.30
33105;DHT22;19476;51.448;6.674;2022-12-18T08:51:21;4.10;45.30
33105;DHT22;19476;51.448;6.674;2022-12-18T08:53:47;4.20;45.30
33105;DHT22;19476;51.448;6.674;2022-12-18T08:56:13;4.20;45.30
33105;DHT22;19476;51.448;6.674;2022-12-18T08:58:40;4.20;45.40
33105;DHT22;19476;51.448;6.674;2022-12-18T09:01:07;4.10;45.30
33105;DHT22;19476;51.448;6.674;2022-12-18T09:03:38;4.30;45.50
33105;DHT22;19476;51.448;6.674;2022-12-18T09:06:04;4.30;45.00
33105;DHT22;19476;51.448;6.674;2022-12-18T09:08:30;4.40;45.10
33105;DHT22;19476;51.448;6.674;2022-12-18T09:11:02;4.40;45.10
33105;DHT22;19476;51.448;6.674;2022-12-18T09:13:28;4.40;44.90
33105;DHT22;19476;51.448;6.674;2022-12-18T09:15:54;4.40;45.00
33105;DHT22;19476;51.448;6.674;2022-12-18T09:18:22;4.50;44.80
33105;DHT22;19476;51.448;6.674;2022-12-18T09:20:48;4.50;44.80
33105;DHT22;19476;51.448;6.674;2022-12-18T09:23:15;4.50;44.90
33105;DHT22;19476;51.448;6.674;2022-12-18T09:25:41;4.60;44.70
33105;DHT22;19476;51.448;6.674;2022-12-18T09:28:16;4.60;44.70
33105;DHT22;19476;51.448;6.674;2022-12-18T09:30:45;4.70;44.80
33105;DHT22;19476;51.448;6.674;2022-12-18T09:33:11;4.70;44.80
33105;DHT22;19476;51.448;6.674;2022-12-18T09:35:38;4.80;44.70
33105;DHT22;19476;51.448;6.674;2022-12-18T09:38:04;4.80;44.70
33105;DHT22;19476;51.448;6.674;2022-12-18T09:40:36;4.90;44.70
33105;DHT22;19476;51.448;6.674;2022-12-18T09:43:05;4.90;45.30
33105;DHT22;19476;51.448;6.674;2022-12-18T09:45:44;5.00;44.80
33105;DHT22;19476;51.448;6.674;2022-12-18T09:48:25;5.10;44.60
33105;DHT22;19476;51.448;6.674;2022-12-18T09:50:57;5.10;44.20
33105;DHT22;19476;51.448;6.674;2022-12-18T09:53:27;5.20;44.30
33105;DHT22;19476;51.448;6.674;2022-12-18T09:55:56;5.20;44.20
33105;DHT22;19476;51.448;6.674;2022-12-18T10:00:54;5.30;43.70
33105;DHT22;19476;51.448;6.674;2022-12-18T10:03:21;5.30;43.60
33105;DHT22;19476;51.448;6.674;2022-12-18T10:06:00;5.30;43.50
33105;DHT22;19476;51.448;6.674;2022-12-18T10:09:01;5.40;43.50
33105;DHT22;19476;51.448;6.674;2022-12-18T10:14:23;5.40;43.10
33105;DHT22;19476;51.448;6.674;2022-12-18T10:19:50;5.40;43.10
33105;DHT22;19476;51.448;6.674;2022-12-18T10:25:23;5.50;43.10
33105;DHT22;19476;51.448;6.674;2022-12-18T10:27:54;5.50;43.10
33105;DHT22;19476;51.448;6.674;2022-12-18T10:30:23;5.50;43.10
33105;DHT22;19476;51.448;6.674;2022-12-18T10:32:49;5.50;43.10
33105;DHT22;19476;51.448;6.674;2022-12-18T10:35:24;5.50;43.10
33105;DHT22;19476;51.448;6.674;2022-12-18T10:38:27;5.50;43.10
33105;DHT22;19476;51.448;6.674;2022-12-18T10:41:00;5.60;43.00
33105;DHT22;19476;51.448;6.674;2022-12-18T10:48:32;5.70;42.80
33105;DHT22;19476;51.448;6.674;2022-12-18T10:50:59;5.70;42.80
33105;DHT22;19476;51.448;6.674;2022-12-18T10:53:28;5.70;42.80
33105;DHT22;19476;51.448;6.674;2022-12-18T10:55:58;5.80;42.90
33105;DHT22;19476;51.448;6.674;2022-12-18T10:58:31;5.80;42.70
33105;DHT22;19476;51.448;6.674;2022-12-18T11:06:21;5.90;42.10
33105;DHT22;19476;51.448;6.674;2022-12-18T11:09:07;5.90;42.40
33105;DHT22;19476;51.448;6.674;2022-12-18T11:11:51;5.90;42.30
33105;DHT22;19476;51.448;6.674;2022-12-18T11:14:25;6.00;42.50
33105;DHT22;19476;51.448;6.674;2022-12-18T11:16:52;6.00;42.60
33105;DHT22;19476;51.448;6.674;2022-12-18T11:19:26;6.00;42.70
33105;DHT22;19476;51.448;6.674;2022-12-18T11:21:53;6.10;42.70
33105;DHT22;19476;51.448;6.674;2022-12-18T11:26:46;6.20;42.50
33105;DHT22;19476;51.448;6.674;2022-12-18T11:29:24;6.20;42.60
33105;DHT22;19476;51.448;6.674;2022-12-18T11:32:30;6.20;42.30
33105;DHT22;19476;51.448;6.674;2022-12-18T11:37:58;6.30;42.50
33105;DHT22;19476;51.448;6.674;2022-12-18T11:40:31;6.40;42.50
33105;DHT22;19476;51.448;6.674;2022-12-18T11:45:35;6.40;42.20
33105;DHT22;19476;51.448;6.674;2022-12-18T11:48:18;6.40;42.10
33105;DHT22;19476;51.448;6.674;2022-12-18T11:50:51;6.50;42.40
33105;DHT22;19476;51.448;6.674;2022-12-18T11:53:18;6.50;42.00
33105;DHT22;19476;51.448;6.674;2022-12-18T11:58:26;6.50;42.10
33105;DHT22;19476;51.448;6.674;2022-12-18T12:03:46;6.50;42.30
33105;DHT22;19476;51.448;6.674;2022-12-18T12:07:15;6.60;42.30
33105;DHT22;19476;51.448;6.674;2022-12-18T12:09:35;6.70;42.20
33105;DHT22;19476;51.448;6.674;2022-12-18T12:21:16;6.80;41.60
33105;DHT22;19476;51.448;6.674;2022-12-18T12:40:17;6.80;40.90
33105;DHT22;19476;51.448;6.674;2022-12-18T12:42:52;6.80;40.90
33105;DHT22;19476;51.448;6.674;2022-12-18T12:45:54;6.70;40.90
33105;DHT22;19476;51.448;6.674;2022-12-18T12:51:01;6.70;40.30
33105;DHT22;19476;51.448;6.674;2022-12-18T12:53:36;6.70;40.40
33105;DHT22;19476;51.448;6.674;2022-12-18T12:56:03;6.60;40.20
33105;DHT22;19476;51.448;6.674;2022-12-18T13:01:48;6.60;40.40
33105;DHT22;19476;51.448;6.674;2022-12-18T13:04:22;6.60;40.30
33105;DHT22;19476;51.448;6.674;2022-12-18T13:07:24;6.50;40.40
33105;DHT22;19476;51.448;6.674;2022-12-18T13:34:39;6.40;40.80
33105;DHT22;19476;51.448;6.674;2022-12-18T13:39:57;6.40;40.70
33105;DHT22;19476;51.448;6.674;2022-12-18T13:42:37;6.40;40.60
33105;DHT22;19476;51.448;6.674;2022-12-18T13:45:40;6.40;40.50
33105;DHT22;19476;51.448;6.674;2022-12-18T13:48:24;6.30;40.60
33105;DHT22;19476;51.448;6.674;2022-12-18T13:51:06;6.30;40.70
33105;DHT22;19476;51.448;6.674;2022-12-18T13:53:42;6.30;40.70
33105;DHT22;19476;51.448;6.674;2022-12-18T13:56:09;6.30;41.00
33105;DHT22;19476;51.448;6.674;2022-12-18T13:58:40;6.30;41.00
33105;DHT22;19476;51.448;6.674;2022-12-18T14:01:23;6.30;40.90
33105;DHT22;19476;51.448;6.674;2022-12-18T14:03:50;6.30;40.90
33105;DHT22;19476;51.448;6.674;2022-12-18T14:06:18;6.40;40.90
33105;DHT22;19476;51.448;6.674;2022-12-18T14:08:46;6.40;40.70
33105;DHT22;19476;51.448;6.674;2022-12-18T14:11:20;6.40;40.50
33105;DHT22;19476;51.448;6.674;2022-12-18T14:13:47;6.40;40.40
33105;DHT22;19476;51.448;6.674;2022-12-18T14:16:15;6.30;40.50
33105;DHT22;19476;51.448;6.674;2022-12-18T14:18:46;6.40;40.60
33105;DHT22;19476;51.448;6.674;2022-12-18T14:21:26;6.40;40.40
33105;DHT22;19476;51.448;6.674;2022-12-18T14:24:15;6.30;40.50
33105;DHT22;19476;51.448;6.674;2022-12-18T14:26:42;6.40;40.50
33105;DHT22;19476;51.448;6.674;2022-12-18T14:29:23;6.30;40.50
33105;DHT22;19476;51.448;6.674;2022-12-18T14:32:09;6.40;40.50
33105;DHT22;19476;51.448;6.674;2022-12-18T14:34:35;6.30;40.40
33105;DHT22;19476;51.448;6.674;2022-12-18T14:37:00;6.30;40.40
33105;DHT22;19476;51.448;6.674;2022-12-18T14:39:26;6.30;40.40
33105;DHT22;19476;51.448;6.674;2022-12-18T14:41:52;6.30;40.40
33105;DHT22;19476;51.448;6.674;2022-12-18T14:44:18;6.30;40.60
33105;DHT22;19476;51.448;6.674;2022-12-18T14:46:45;6.30;40.50
33105;DHT22;19476;51.448;6.674;2022-12-18T14:49:30;6.20;40.60
33105;DHT22;19476;51.448;6.674;2022-12-18T14:51:58;6.20;40.80
33105;DHT22;19476;51.448;6.674;2022-12-18T14:54:26;6.20;40.80
33105;DHT22;19476;51.448;6.674;2022-12-18T14:59:42;6.20;40.60
33105;DHT22;19476;51.448;6.674;2022-12-18T15:02:20;6.20;40.60
33105;DHT22;19476;51.448;6.674;2022-12-18T15:04:47;6.20;40.60
33105;DHT22;19476;51.448;6.674;2022-12-18T15:07:24;6.20;40.70
33105;DHT22;19476;51.448;6.674;2022-12-18T15:12:35;6.20;41.00
33105;DHT22;19476;51.448;6.674;2022-12-18T15:15:02;6.20;41.60
33105;DHT22;19476;51.448;6.674;2022-12-18T15:17:28;6.20;41.20
33105;DHT22;19476;51.448;6.674;2022-12-18T15:20:00;6.20;41.10
33105;DHT22;19476;51.448;6.674;2022-12-18T15:22:28;6.20;41.10
33105;DHT22;19476;51.448;6.674;2022-12-18T15:24:56;6.20;41.10
33105;DHT22;19476;51.448;6.674;2022-12-18T15:27:36;6.10;41.10
33105;DHT22;19476;51.448;6.674;2022-12-18T15:32:39;6.10;41.20
33105;DHT22;19476;51.448;6.674;2022-12-18T15:37:40;6.10;41.30
33105;DHT22;19476;51.448;6.674;2022-12-18T15:40:08;6.10;41.30
33105;DHT22;19476;51.448;6.674;2022-12-18T15:42:34;6.10;41.30
33105;DHT22;19476;51.448;6.674;2022-12-18T15:45:18;6.00;41.20
33105;DHT22;19476;51.448;6.674;2022-12-18T15:47:45;6.00;41.20
33105;DHT22;19476;51.448;6.674;2022-12-18T15:50:11;6.00;41.20
33105;DHT22;19476;51.448;6.674;2022-12-18T15:52:42;6.00;41.10
33105;DHT22;19476;51.448;6.674;2022-12-18T15:55:20;5.90;41.30
33105;DHT22;19476;51.448;6.674;2022-12-18T15:58:06;5.90;41.40
33105;DHT22;19476;51.448;6.674;2022-12-18T16:00:37;5.90;41.50
33105;DHT22;19476;51.448;6.674;2022-12-18T16:03:04;5.90;41.50
33105;DHT22;19476;51.448;6.674;2022-12-18T16:05:30;5.80;41.50
33105;DHT22;19476;51.448;6.674;2022-12-18T16:07:57;5.80;41.60
33105;DHT22;19476;51.448;6.674;2022-12-18T16:10:24;5.70;41.70
33105;DHT22;19476;51.448;6.674;2022-12-18T16:12:50;5.70;41.90
33105;DHT22;19476;51.448;6.674;2022-12-18T16:15:16;5.70;41.90
33105;DHT22;19476;51.448;6.674;2022-12-18T16:17:43;5.70;42.10
33105;DHT22;19476;51.448;6.674;2022-12-18T16:20:21;5.70;42.20
33105;DHT22;19476;51.448;6.674;2022-12-18T16:22:47;5.60;42.30
33105;DHT22;19476;51.448;6.674;2022-12-18T16:27:47;5.60;42.60
33105;DHT22;19476;51.448;6.674;2022-12-18T16:30:18;5.60;42.70
33105;DHT22;19476;51.448;6.674;2022-12-18T16:32:44;5.50;42.80
33105;DHT22;19476;51.448;6.674;2022-12-18T16:35:11;5.50;42.80
33105;DHT22;19476;51.448;6.674;2022-12-18T16:37:37;5.50;43.10
33105;DHT22;19476;51.448;6.674;2022-12-18T16:40:04;5.50;43.10
33105;DHT22;19476;51.448;6.674;2022-12-18T16:42:31;5.50;43.10
33105;DHT22;19476;51.448;6.674;2022-12-18T16:44:56;5.50;43.10
33105;DHT22;19476;51.448;6.674;2022-12-18T16:47:22;5.40;43.20
33105;DHT22;19476;51.448;6.674;2022-12-18T16:49:48;5.40;43.20
33105;DHT22;19476;51.448;6.674;2022-12-18T16:52:17;5.40;43.30
33105;DHT22;19476;51.448;6.674;2022-12-18T16:54:43;5.40;43.50
33105;DHT22;19476;51.448;6.674;2022-12-18T16:57:13;5.40;43.50
33105;DHT22;19476;51.448;6.674;2022-12-18T16:59:39;5.40;43.70
33105;DHT22;19476;51.448;6.674;2022-12-18T17:02:06;5.40;43.70
33105;DHT22;19476;51.448;6.674;2022-12-18T17:04:32;5.40;43.90
33105;DHT22;19476;51.448;6.674;2022-12-18T17:06:58;5.40;44.00
33105;DHT22;19476;51.448;6.674;2022-12-18T17:09:24;5.30;44.10
33105;DHT22;19476;51.448;6.674;2022-12-18T17:11:50;5.30;44.30
33105;DHT22;19476;51.448;6.674;2022-12-18T17:14:18;5.20;44.50
33105;DHT22;19476;51.448;6.674;2022-12-18T17:16:45;5.20;44.70
33105;DHT22;19476;51.448;6.674;2022-12-18T17:19:11;5.20;44.80
33105;DHT22;19476;51.448;6.674;2022-12-18T17:21:37;5.20;45.00
33105;DHT22;19476;51.448;6.674;2022-12-18T17:24:03;5.10;45.00
33105;DHT22;19476;51.448;6.674;2022-12-18T17:26:30;5.10;45.10
33105;DHT22;19476;51.448;6.674;2022-12-18T17:28:56;5.10;45.20
33105;DHT22;19476;51.448;6.674;2022-12-18T17:31:24;5.10;45.40
33105;DHT22;19476;51.448;6.674;2022-12-18T17:33:50;5.10;45.60
33105;DHT22;19476;51.448;6.674;2022-12-18T17:36:17;5.10;45.60
33105;DHT22;19476;51.448;6.674;2022-12-18T17:38:58;5.10;45.60
33105;DHT22;19476;51.448;6.674;2022-12-18T17:41:25;5.10;45.90
33105;DHT22;19476;51.448;6.674;2022-12-18T17:43:57;5.10;45.90
33105;DHT22;19476;51.448;6.674;2022-12-18T17:46:24;5.10;46.00
33105;DHT22;19476;51.448;6.674;2022-12-18T17:48:50;5.10;46.10
33105;DHT22;19476;51.448;6.674;2022-12-18T17:51:17;5.10;46.20
33105;DHT22;19476;51.448;6.674;2022-12-18T17:53:43;5.10;46.30
33105;DHT22;19476;51.448;6.674;2022-12-18T17:56:29;5.00;46.40
33105;DHT22;19476;51.448;6.674;2022-12-18T17:58:55;4.80;46.60
33105;DHT22;19476;51.448;6.674;2022-12-18T18:01:24;5.00;46.50
33105;DHT22;19476;51.448;6.674;2022-12-18T18:04:06;5.00;46.70
33105;DHT22;19476;51.448;6.674;2022-12-18T18:06:35;5.00;47.00
33105;DHT22;19476;51.448;6.674;2022-12-18T18:09:01;5.00;46.80
33105;DHT22;19476;51.448;6.674;2022-12-18T18:11:30;5.00;46.80
33105;DHT22;19476;51.448;6.674;2022-12-18T18:14:17;5.00;46.90
33105;DHT22;19476;51.448;6.674;2022-12-18T18:16:48;5.00;47.00
33105;DHT22;19476;51.448;6.674;2022-12-18T18:19:20;5.00;47.00
33105;DHT22;19476;51.448;6.674;2022-12-18T18:22:02;5.00;47.10
33105;DHT22;19476;51.448;6.674;2022-12-18T18:24:28;5.00;47.10
33105;DHT22;19476;51.448;6.674;2022-12-18T18:26:53;5.10;46.90
33105;DHT22;19476;51.448;6.674;2022-12-18T18:29:26;5.10;46.90
33105;DHT22;19476;51.448;6.674;2022-12-18T18:32:06;5.10;46.90
33105;DHT22;19476;51.448;6.674;2022-12-18T18:34:49;5.20;47.00
33105;DHT22;19476;51.448;6.674;2022-12-18T18:37:15;5.20;46.90
33105;DHT22;19476;51.448;6.674;2022-12-18T18:39:41;5.20;46.60
33105;DHT22;19476;51.448;6.674;2022-12-18T18:42:07;5.50;46.70
33105;DHT22;19476;51.448;6.674;2022-12-18T18:44:33;5.30;46.50